Terminal Aerodrome Forecast
Issued by NWS

Home | Current Version | Previous Version | Text Only | Print | Product List | Glossary On
Versions: 1 2 3 4 5 6 7 8 9 10 11 12 13 14 15 16 17 18 19 20 21 22 23 24 25 26 27 28 29
000
FTUS46 KEKA 291840 AAA
TAFCEC
TAF AMD
KCEC 291840Z 2919/3018 36006KT P6SM SKC
     FM292000 35010G15KT P6SM SCT250
     FM300300 36006KT 6SM HZ FEW250
     FM300700 10003KT 4SM BR BKN050=

USA.gov is the U.S. government's official web portal to all federal, state and local government web resources and services.